sensor_id;sensor_type;location;lat;lon;timestamp;P1;durP1;ratioP1;P2;durP2;ratioP2
20727;SDS011;10525;50.154;8.198;2022-12-31T00:01:10;2.60;;;2.50;;
20727;SDS011;10525;50.154;8.198;2022-12-31T00:03:38;3.10;;;2.90;;
20727;SDS011;10525;50.154;8.198;2022-12-31T00:06:12;2.50;;;2.40;;
20727;SDS011;10525;50.154;8.198;2022-12-31T00:08:41;2.50;;;2.40;;
20727;SDS011;10525;50.154;8.198;2022-12-31T00:11:07;2.95;;;2.75;;
20727;SDS011;10525;50.154;8.198;2022-12-31T00:13:34;3.00;;;2.90;;
20727;SDS011;10525;50.154;8.198;2022-12-31T00:16:04;3.22;;;3.10;;
20727;SDS011;10525;50.154;8.198;2022-12-31T00:18:32;3.45;;;3.35;;
20727;SDS011;10525;50.154;8.198;2022-12-31T00:20:59;3.15;;;3.03;;
20727;SDS011;10525;50.154;8.198;2022-12-31T00:23:29;4.03;;;3.70;;
20727;SDS011;10525;50.154;8.198;2022-12-31T00:26:00;3.42;;;3.30;;
20727;SDS011;10525;50.154;8.198;2022-12-31T00:28:27;3.50;;;3.40;;
20727;SDS011;10525;50.154;8.198;2022-12-31T00:30:54;3.25;;;2.95;;
20727;SDS011;10525;50.154;8.198;2022-12-31T00:33:21;3.33;;;3.13;;
20727;SDS011;10525;50.154;8.198;2022-12-31T00:35:47;3.28;;;3.17;;
20727;SDS011;10525;50.154;8.198;2022-12-31T00:38:14;3.10;;;3.00;;
20727;SDS011;10525;50.154;8.198;2022-12-31T00:40:41;3.75;;;3.25;;
20727;SDS011;10525;50.154;8.198;2022-12-31T00:43:09;2.85;;;2.75;;
20727;SDS011;10525;50.154;8.198;2022-12-31T00:45:35;3.40;;;3.20;;
20727;SDS011;10525;50.154;8.198;2022-12-31T00:48:02;3.13;;;2.92;;
20727;SDS011;10525;50.154;8.198;2022-12-31T00:50:29;3.00;;;2.90;;
20727;SDS011;10525;50.154;8.198;2022-12-31T00:52:55;3.40;;;3.20;;
20727;SDS011;10525;50.154;8.198;2022-12-31T00:55:22;2.47;;;2.40;;
20727;SDS011;10525;50.154;8.198;2022-12-31T00:57:49;2.85;;;2.75;;
20727;SDS011;10525;50.154;8.198;2022-12-31T01:00:17;2.63;;;2.53;;
20727;SDS011;10525;50.154;8.198;2022-12-31T01:02:43;2.55;;;2.45;;
20727;SDS011;10525;50.154;8.198;2022-12-31T01:05:10;2.40;;;2.40;;
20727;SDS011;10525;50.154;8.198;2022-12-31T01:07:37;2.00;;;2.00;;
20727;SDS011;10525;50.154;8.198;2022-12-31T01:10:04;2.20;;;2.20;;
20727;SDS011;10525;50.154;8.198;2022-12-31T01:12:31;1.80;;;1.80;;
20727;SDS011;10525;50.154;8.198;2022-12-31T01:14:58;1.98;;;1.80;;
20727;SDS011;10525;50.154;8.198;2022-12-31T01:17:26;1.70;;;1.70;;
20727;SDS011;10525;50.154;8.198;2022-12-31T01:19:53;1.50;;;1.50;;
20727;SDS011;10525;50.154;8.198;2022-12-31T01:22:20;1.27;;;1.27;;
20727;SDS011;10525;50.154;8.198;2022-12-31T01:24:46;2.10;;;1.58;;
20727;SDS011;10525;50.154;8.198;2022-12-31T01:27:13;1.58;;;1.58;;
20727;SDS011;10525;50.154;8.198;2022-12-31T01:29:39;1.75;;;1.27;;
20727;SDS011;10525;50.154;8.198;2022-12-31T01:32:06;1.40;;;1.40;;
20727;SDS011;10525;50.154;8.198;2022-12-31T01:34:34;1.33;;;1.33;;
20727;SDS011;10525;50.154;8.198;2022-12-31T01:37:01;1.20;;;1.20;;
20727;SDS011;10525;50.154;8.198;2022-12-31T01:39:27;3.22;;;1.38;;
20727;SDS011;10525;50.154;8.198;2022-12-31T01:41:54;1.30;;;1.30;;
20727;SDS011;10525;50.154;8.198;2022-12-31T01:47:14;1.55;;;1.55;;
20727;SDS011;10525;50.154;8.198;2022-12-31T01:49:46;1.10;;;1.10;;
20727;SDS011;10525;50.154;8.198;2022-12-31T01:52:16;3.50;;;1.30;;
20727;SDS011;10525;50.154;8.198;2022-12-31T01:54:46;1.73;;;1.73;;
20727;SDS011;10525;50.154;8.198;2022-12-31T01:57:16;1.40;;;1.40;;
20727;SDS011;10525;50.154;8.198;2022-12-31T01:59:44;1.30;;;1.30;;
20727;SDS011;10525;50.154;8.198;2022-12-31T02:02:11;1.17;;;1.17;;
20727;SDS011;10525;50.154;8.198;2022-12-31T02:04:39;1.27;;;1.27;;
20727;SDS011;10525;50.154;8.198;2022-12-31T02:07:07;1.70;;;1.70;;
20727;SDS011;10525;50.154;8.198;2022-12-31T02:09:36;2.08;;;1.98;;
20727;SDS011;10525;50.154;8.198;2022-12-31T02:12:04;2.05;;;1.20;;
20727;SDS011;10525;50.154;8.198;2022-12-31T02:14:33;1.00;;;1.00;;
20727;SDS011;10525;50.154;8.198;2022-12-31T02:17:06;1.27;;;1.23;;
20727;SDS011;10525;50.154;8.198;2022-12-31T02:19:46;1.38;;;1.27;;
20727;SDS011;10525;50.154;8.198;2022-12-31T02:22:29;3.33;;;1.15;;
20727;SDS011;10525;50.154;8.198;2022-12-31T02:25:17;1.60;;;1.60;;
20727;SDS011;10525;50.154;8.198;2022-12-31T02:28:09;0.93;;;0.93;;
20727;SDS011;10525;50.154;8.198;2022-12-31T02:30:46;0.90;;;0.90;;
20727;SDS011;10525;50.154;8.198;2022-12-31T02:33:17;4.47;;;1.00;;
20727;SDS011;10525;50.154;8.198;2022-12-31T02:35:48;0.98;;;0.98;;
20727;SDS011;10525;50.154;8.198;2022-12-31T02:38:20;1.75;;;1.00;;
20727;SDS011;10525;50.154;8.198;2022-12-31T02:40:49;0.90;;;0.90;;
20727;SDS011;10525;50.154;8.198;2022-12-31T02:43:18;1.23;;;1.02;;
20727;SDS011;10525;50.154;8.198;2022-12-31T02:45:46;1.13;;;1.13;;
20727;SDS011;10525;50.154;8.198;2022-12-31T02:48:25;1.30;;;1.30;;
20727;SDS011;10525;50.154;8.198;2022-12-31T02:51:03;1.20;;;1.20;;
20727;SDS011;10525;50.154;8.198;2022-12-31T02:53:48;2.42;;;1.10;;
20727;SDS011;10525;50.154;8.198;2022-12-31T02:56:23;1.40;;;1.30;;
20727;SDS011;10525;50.154;8.198;2022-12-31T02:58:57;3.40;;;1.40;;
20727;SDS011;10525;50.154;8.198;2022-12-31T03:01:47;1.50;;;1.50;;
20727;SDS011;10525;50.154;8.198;2022-12-31T03:04:35;1.40;;;1.40;;
20727;SDS011;10525;50.154;8.198;2022-12-31T03:07:03;3.58;;;1.45;;
20727;SDS011;10525;50.154;8.198;2022-12-31T03:09:31;1.65;;;1.60;;
20727;SDS011;10525;50.154;8.198;2022-12-31T03:11:58;1.60;;;1.60;;
20727;SDS011;10525;50.154;8.198;2022-12-31T03:14:44;1.52;;;1.50;;
20727;SDS011;10525;50.154;8.198;2022-12-31T03:17:12;1.60;;;1.50;;
20727;SDS011;10525;50.154;8.198;2022-12-31T03:19:39;1.85;;;1.75;;
20727;SDS011;10525;50.154;8.198;2022-12-31T03:22:24;1.73;;;1.60;;
20727;SDS011;10525;50.154;8.198;2022-12-31T03:24:55;1.98;;;1.88;;
20727;SDS011;10525;50.154;8.198;2022-12-31T03:27:41;1.90;;;1.90;;
20727;SDS011;10525;50.154;8.198;2022-12-31T03:30:09;4.22;;;2.00;;
20727;SDS011;10525;50.154;8.198;2022-12-31T03:32:38;2.05;;;2.05;;
20727;SDS011;10525;50.154;8.198;2022-12-31T03:35:05;1.90;;;1.90;;
20727;SDS011;10525;50.154;8.198;2022-12-31T03:37:33;5.75;;;2.42;;
20727;SDS011;10525;50.154;8.198;2022-12-31T03:40:00;2.17;;;2.10;;
20727;SDS011;10525;50.154;8.198;2022-12-31T03:42:26;2.53;;;2.33;;
20727;SDS011;10525;50.154;8.198;2022-12-31T03:44:53;2.10;;;2.10;;
20727;SDS011;10525;50.154;8.198;2022-12-31T03:47:19;1.95;;;1.95;;
20727;SDS011;10525;50.154;8.198;2022-12-31T03:49:47;3.35;;;2.03;;
20727;SDS011;10525;50.154;8.198;2022-12-31T03:52:14;2.20;;;2.10;;
20727;SDS011;10525;50.154;8.198;2022-12-31T03:54:41;1.60;;;1.60;;
20727;SDS011;10525;50.154;8.198;2022-12-31T03:57:07;3.55;;;2.20;;
20727;SDS011;10525;50.154;8.198;2022-12-31T03:59:34;2.60;;;2.50;;
20727;SDS011;10525;50.154;8.198;2022-12-31T04:02:01;2.55;;;2.35;;
20727;SDS011;10525;50.154;8.198;2022-12-31T04:04:27;2.15;;;2.05;;
20727;SDS011;10525;50.154;8.198;2022-12-31T04:06:55;3.08;;;2.53;;
20727;SDS011;10525;50.154;8.198;2022-12-31T04:09:22;2.33;;;2.15;;
20727;SDS011;10525;50.154;8.198;2022-12-31T04:11:49;2.20;;;2.08;;
20727;SDS011;10525;50.154;8.198;2022-12-31T04:14:16;5.45;;;2.00;;
20727;SDS011;10525;50.154;8.198;2022-12-31T04:16:43;2.03;;;2.03;;
20727;SDS011;10525;50.154;8.198;2022-12-31T04:19:10;2.15;;;2.05;;
20727;SDS011;10525;50.154;8.198;2022-12-31T04:21:37;2.95;;;1.90;;
20727;SDS011;10525;50.154;8.198;2022-12-31T04:24:05;6.53;;;2.08;;
20727;SDS011;10525;50.154;8.198;2022-12-31T04:26:33;1.60;;;1.60;;
20727;SDS011;10525;50.154;8.198;2022-12-31T04:29:01;2.30;;;2.10;;
20727;SDS011;10525;50.154;8.198;2022-12-31T04:31:28;1.73;;;1.70;;
20727;SDS011;10525;50.154;8.198;2022-12-31T04:33:55;1.70;;;1.70;;
20727;SDS011;10525;50.154;8.198;2022-12-31T04:36:21;2.00;;;1.90;;
20727;SDS011;10525;50.154;8.198;2022-12-31T04:38:48;3.50;;;1.42;;
20727;SDS011;10525;50.154;8.198;2022-12-31T04:41:16;1.80;;;1.80;;
20727;SDS011;10525;50.154;8.198;2022-12-31T04:43:43;1.70;;;1.70;;
20727;SDS011;10525;50.154;8.198;2022-12-31T04:46:12;1.95;;;1.85;;
20727;SDS011;10525;50.154;8.198;2022-12-31T04:48:39;2.13;;;2.03;;
20727;SDS011;10525;50.154;8.198;2022-12-31T04:51:06;2.20;;;2.00;;
20727;SDS011;10525;50.154;8.198;2022-12-31T04:53:33;1.90;;;1.90;;
20727;SDS011;10525;50.154;8.198;2022-12-31T04:55:59;2.38;;;2.22;;
20727;SDS011;10525;50.154;8.198;2022-12-31T04:58:27;7.18;;;3.38;;
20727;SDS011;10525;50.154;8.198;2022-12-31T05:00:54;1.80;;;1.80;;
20727;SDS011;10525;50.154;8.198;2022-12-31T05:03:22;1.88;;;1.88;;
20727;SDS011;10525;50.154;8.198;2022-12-31T05:05:50;3.45;;;1.90;;
20727;SDS011;10525;50.154;8.198;2022-12-31T05:08:17;2.13;;;2.10;;
20727;SDS011;10525;50.154;8.198;2022-12-31T05:10:45;2.50;;;2.40;;
20727;SDS011;10525;50.154;8.198;2022-12-31T05:13:13;2.22;;;2.13;;
20727;SDS011;10525;50.154;8.198;2022-12-31T05:15:42;2.58;;;2.35;;
20727;SDS011;10525;50.154;8.198;2022-12-31T05:18:08;1.92;;;1.83;;
20727;SDS011;10525;50.154;8.198;2022-12-31T05:20:35;2.10;;;2.00;;
20727;SDS011;10525;50.154;8.198;2022-12-31T05:23:02;2.13;;;2.13;;
20727;SDS011;10525;50.154;8.198;2022-12-31T05:25:28;2.70;;;2.38;;
20727;SDS011;10525;50.154;8.198;2022-12-31T05:27:55;2.08;;;2.03;;
20727;SDS011;10525;50.154;8.198;2022-12-31T05:30:22;2.00;;;1.90;;
20727;SDS011;10525;50.154;8.198;2022-12-31T05:32:50;2.22;;;2.03;;
20727;SDS011;10525;50.154;8.198;2022-12-31T05:35:17;4.50;;;2.15;;
20727;SDS011;10525;50.154;8.198;2022-12-31T05:37:43;2.20;;;1.92;;
20727;SDS011;10525;50.154;8.198;2022-12-31T05:40:10;2.10;;;2.00;;
20727;SDS011;10525;50.154;8.198;2022-12-31T05:42:38;2.97;;;2.15;;
20727;SDS011;10525;50.154;8.198;2022-12-31T05:45:05;2.63;;;2.40;;
20727;SDS011;10525;50.154;8.198;2022-12-31T05:47:32;2.28;;;2.28;;
20727;SDS011;10525;50.154;8.198;2022-12-31T05:50:00;3.05;;;2.05;;
20727;SDS011;10525;50.154;8.198;2022-12-31T05:52:27;3.75;;;2.33;;
20727;SDS011;10525;50.154;8.198;2022-12-31T05:54:54;3.55;;;2.83;;
20727;SDS011;10525;50.154;8.198;2022-12-31T05:57:20;2.80;;;1.95;;
20727;SDS011;10525;50.154;8.198;2022-12-31T05:59:47;2.50;;;2.30;;
20727;SDS011;10525;50.154;8.198;2022-12-31T06:02:14;3.22;;;2.22;;
20727;SDS011;10525;50.154;8.198;2022-12-31T06:04:40;4.65;;;2.38;;
20727;SDS011;10525;50.154;8.198;2022-12-31T06:07:08;2.58;;;2.47;;
20727;SDS011;10525;50.154;8.198;2022-12-31T06:09:35;2.50;;;2.40;;
20727;SDS011;10525;50.154;8.198;2022-12-31T06:12:02;5.35;;;2.38;;
20727;SDS011;10525;50.154;8.198;2022-12-31T06:14:29;3.42;;;2.28;;
20727;SDS011;10525;50.154;8.198;2022-12-31T06:16:56;2.70;;;2.60;;
20727;SDS011;10525;50.154;8.198;2022-12-31T06:19:23;2.50;;;2.40;;
20727;SDS011;10525;50.154;8.198;2022-12-31T06:21:50;2.53;;;2.42;;
20727;SDS011;10525;50.154;8.198;2022-12-31T06:24:18;2.33;;;2.20;;
20727;SDS011;10525;50.154;8.198;2022-12-31T06:26:44;3.08;;;2.67;;
20727;SDS011;10525;50.154;8.198;2022-12-31T06:29:11;2.28;;;1.95;;
20727;SDS011;10525;50.154;8.198;2022-12-31T06:31:38;2.05;;;1.95;;
20727;SDS011;10525;50.154;8.198;2022-12-31T06:34:05;5.82;;;2.00;;
20727;SDS011;10525;50.154;8.198;2022-12-31T06:36:31;4.82;;;2.30;;
20727;SDS011;10525;50.154;8.198;2022-12-31T06:38:58;7.15;;;2.50;;
20727;SDS011;10525;50.154;8.198;2022-12-31T06:41:27;2.17;;;2.00;;
20727;SDS011;10525;50.154;8.198;2022-12-31T06:43:54;2.00;;;1.90;;
20727;SDS011;10525;50.154;8.198;2022-12-31T06:46:20;4.25;;;2.20;;
20727;SDS011;10525;50.154;8.198;2022-12-31T06:48:47;2.00;;;1.90;;
20727;SDS011;10525;50.154;8.198;2022-12-31T06:51:14;8.63;;;2.10;;
20727;SDS011;10525;50.154;8.198;2022-12-31T06:53:43;2.17;;;1.85;;
20727;SDS011;10525;50.154;8.198;2022-12-31T06:56:12;2.95;;;1.98;;
20727;SDS011;10525;50.154;8.198;2022-12-31T06:58:42;3.50;;;1.80;;
20727;SDS011;10525;50.154;8.198;2022-12-31T07:01:14;3.83;;;1.80;;
20727;SDS011;10525;50.154;8.198;2022-12-31T07:03:54;1.88;;;1.85;;
20727;SDS011;10525;50.154;8.198;2022-12-31T07:06:29;1.58;;;1.58;;
20727;SDS011;10525;50.154;8.198;2022-12-31T07:09:02;4.82;;;1.70;;
20727;SDS011;10525;50.154;8.198;2022-12-31T07:11:34;3.53;;;2.42;;
20727;SDS011;10525;50.154;8.198;2022-12-31T07:14:10;3.25;;;1.95;;
20727;SDS011;10525;50.154;8.198;2022-12-31T07:16:51;2.83;;;1.60;;
20727;SDS011;10525;50.154;8.198;2022-12-31T07:19:28;1.60;;;1.50;;
20727;SDS011;10525;50.154;8.198;2022-12-31T07:22:03;3.30;;;1.70;;
20727;SDS011;10525;50.154;8.198;2022-12-31T07:24:30;2.78;;;1.98;;
20727;SDS011;10525;50.154;8.198;2022-12-31T07:27:01;1.70;;;1.60;;
20727;SDS011;10525;50.154;8.198;2022-12-31T07:29:40;1.67;;;1.58;;
20727;SDS011;10525;50.154;8.198;2022-12-31T07:32:22;1.50;;;1.50;;
20727;SDS011;10525;50.154;8.198;2022-12-31T07:35:03;1.45;;;1.45;;
20727;SDS011;10525;50.154;8.198;2022-12-31T07:37:42;2.88;;;1.60;;
20727;SDS011;10525;50.154;8.198;2022-12-31T07:40:17;1.50;;;1.48;;
20727;SDS011;10525;50.154;8.198;2022-12-31T07:42:57;3.22;;;1.60;;
20727;SDS011;10525;50.154;8.198;2022-12-31T07:45:32;1.55;;;1.45;;
20727;SDS011;10525;50.154;8.198;2022-12-31T07:48:03;1.48;;;1.38;;
20727;SDS011;10525;50.154;8.198;2022-12-31T07:50:36;1.63;;;1.52;;
20727;SDS011;10525;50.154;8.198;2022-12-31T07:53:03;1.40;;;1.30;;
20727;SDS011;10525;50.154;8.198;2022-12-31T07:55:30;2.65;;;1.45;;
20727;SDS011;10525;50.154;8.198;2022-12-31T07:58:00;2.08;;;1.40;;
20727;SDS011;10525;50.154;8.198;2022-12-31T08:00:31;1.70;;;1.60;;
20727;SDS011;10525;50.154;8.198;2022-12-31T08:03:01;2.22;;;1.35;;
20727;SDS011;10525;50.154;8.198;2022-12-31T08:05:38;1.60;;;1.50;;
20727;SDS011;10525;50.154;8.198;2022-12-31T08:08:17;1.40;;;1.40;;
20727;SDS011;10525;50.154;8.198;2022-12-31T08:10:52;3.22;;;1.70;;
20727;SDS011;10525;50.154;8.198;2022-12-31T08:13:26;2.30;;;1.42;;
20727;SDS011;10525;50.154;8.198;2022-12-31T08:15:55;1.33;;;1.33;;
20727;SDS011;10525;50.154;8.198;2022-12-31T08:18:22;2.42;;;1.70;;
20727;SDS011;10525;50.154;8.198;2022-12-31T08:20:57;1.30;;;1.30;;
20727;SDS011;10525;50.154;8.198;2022-12-31T08:23:31;1.13;;;1.10;;
20727;SDS011;10525;50.154;8.198;2022-12-31T08:26:05;2.63;;;1.35;;
20727;SDS011;10525;50.154;8.198;2022-12-31T08:28:44;3.00;;;1.48;;
20727;SDS011;10525;50.154;8.198;2022-12-31T08:31:23;1.10;;;1.10;;
20727;SDS011;10525;50.154;8.198;2022-12-31T08:33:54;2.90;;;1.40;;
20727;SDS011;10525;50.154;8.198;2022-12-31T08:36:26;2.00;;;1.20;;
20727;SDS011;10525;50.154;8.198;2022-12-31T08:39:05;1.65;;;1.55;;
20727;SDS011;10525;50.154;8.198;2022-12-31T08:41:37;4.90;;;1.50;;
20727;SDS011;10525;50.154;8.198;2022-12-31T08:44:08;1.40;;;1.17;;
20727;SDS011;10525;50.154;8.198;2022-12-31T08:46:45;1.27;;;1.27;;
20727;SDS011;10525;50.154;8.198;2022-12-31T08:49:15;1.63;;;1.52;;
20727;SDS011;10525;50.154;8.198;2022-12-31T08:51:42;2.28;;;1.63;;
20727;SDS011;10525;50.154;8.198;2022-12-31T08:54:09;1.27;;;1.25;;
20727;SDS011;10525;50.154;8.198;2022-12-31T08:56:39;1.58;;;1.58;;
20727;SDS011;10525;50.154;8.198;2022-12-31T08:59:16;1.30;;;1.30;;
20727;SDS011;10525;50.154;8.198;2022-12-31T09:02:00;1.42;;;1.30;;
20727;SDS011;10525;50.154;8.198;2022-12-31T09:04:54;1.50;;;1.23;;
20727;SDS011;10525;50.154;8.198;2022-12-31T09:07:29;1.45;;;1.45;;
20727;SDS011;10525;50.154;8.198;2022-12-31T09:10:02;1.20;;;1.17;;
20727;SDS011;10525;50.154;8.198;2022-12-31T09:12:40;1.50;;;1.25;;
20727;SDS011;10525;50.154;8.198;2022-12-31T09:15:13;2.72;;;1.38;;
20727;SDS011;10525;50.154;8.198;2022-12-31T09:17:47;1.92;;;1.73;;
20727;SDS011;10525;50.154;8.198;2022-12-31T09:20:16;1.85;;;1.42;;
20727;SDS011;10525;50.154;8.198;2022-12-31T09:22:47;1.35;;;1.27;;
20727;SDS011;10525;50.154;8.198;2022-12-31T09:25:15;2.03;;;1.55;;
20727;SDS011;10525;50.154;8.198;2022-12-31T09:27:45;1.23;;;1.23;;
20727;SDS011;10525;50.154;8.198;2022-12-31T09:30:21;1.50;;;1.40;;
20727;SDS011;10525;50.154;8.198;2022-12-31T09:32:51;1.58;;;1.50;;
20727;SDS011;10525;50.154;8.198;2022-12-31T09:35:25;1.10;;;1.10;;
20727;SDS011;10525;50.154;8.198;2022-12-31T09:38:01;1.10;;;1.10;;
20727;SDS011;10525;50.154;8.198;2022-12-31T09:43:38;4.38;;;1.23;;
20727;SDS011;10525;50.154;8.198;2022-12-31T09:50:07;2.50;;;1.50;;
20727;SDS011;10525;50.154;8.198;2022-12-31T09:53:05;2.03;;;1.23;;
20727;SDS011;10525;50.154;8.198;2022-12-31T09:55:52;1.27;;;1.25;;
20727;SDS011;10525;50.154;8.198;2022-12-31T09:58:26;1.30;;;1.30;;
20727;SDS011;10525;50.154;8.198;2022-12-31T10:01:06;1.70;;;1.40;;
20727;SDS011;10525;50.154;8.198;2022-12-31T10:06:43;3.83;;;1.30;;
20727;SDS011;10525;50.154;8.198;2022-12-31T10:09:20;2.38;;;1.60;;
20727;SDS011;10525;50.154;8.198;2022-12-31T10:12:15;4.45;;;1.33;;
20727;SDS011;10525;50.154;8.198;2022-12-31T10:15:00;3.63;;;1.60;;
20727;SDS011;10525;50.154;8.198;2022-12-31T10:17:46;1.20;;;1.20;;
20727;SDS011;10525;50.154;8.198;2022-12-31T10:20:26;2.25;;;1.50;;
20727;SDS011;10525;50.154;8.198;2022-12-31T10:23:06;3.95;;;1.50;;
20727;SDS011;10525;50.154;8.198;2022-12-31T10:25:57;1.45;;;1.08;;
20727;SDS011;10525;50.154;8.198;2022-12-31T10:28:41;2.45;;;1.70;;
20727;SDS011;10525;50.154;8.198;2022-12-31T10:31:15;7.13;;;1.30;;
20727;SDS011;10525;50.154;8.198;2022-12-31T10:33:51;1.30;;;1.20;;
20727;SDS011;10525;50.154;8.198;2022-12-31T10:36:31;1.30;;;1.30;;
20727;SDS011;10525;50.154;8.198;2022-12-31T10:39:18;2.38;;;1.40;;
20727;SDS011;10525;50.154;8.198;2022-12-31T10:48:07;1.35;;;1.35;;
20727;SDS011;10525;50.154;8.198;2022-12-31T10:50:54;1.20;;;1.20;;
20727;SDS011;10525;50.154;8.198;2022-12-31T10:53:59;2.03;;;1.83;;
20727;SDS011;10525;50.154;8.198;2022-12-31T10:56:59;1.60;;;1.50;;
20727;SDS011;10525;50.154;8.198;2022-12-31T10:59:50;2.85;;;1.73;;
20727;SDS011;10525;50.154;8.198;2022-12-31T11:05:52;2.13;;;1.80;;
20727;SDS011;10525;50.154;8.198;2022-12-31T11:09:02;2.53;;;1.90;;
20727;SDS011;10525;50.154;8.198;2022-12-31T11:11:55;1.65;;;1.40;;
20727;SDS011;10525;50.154;8.198;2022-12-31T11:14:33;4.45;;;1.73;;
20727;SDS011;10525;50.154;8.198;2022-12-31T11:17:20;2.13;;;1.60;;
20727;SDS011;10525;50.154;8.198;2022-12-31T11:19:59;1.35;;;1.30;;
20727;SDS011;10525;50.154;8.198;2022-12-31T11:22:47;4.57;;;1.95;;
20727;SDS011;10525;50.154;8.198;2022-12-31T11:25:25;2.88;;;1.80;;
20727;SDS011;10525;50.154;8.198;2022-12-31T11:28:03;3.13;;;1.52;;
20727;SDS011;10525;50.154;8.198;2022-12-31T11:30:45;1.45;;;1.35;;
20727;SDS011;10525;50.154;8.198;2022-12-31T11:33:28;2.47;;;1.50;;
20727;SDS011;10525;50.154;8.198;2022-12-31T11:36:11;2.10;;;1.80;;
20727;SDS011;10525;50.154;8.198;2022-12-31T11:38:49;4.88;;;1.50;;
20727;SDS011;10525;50.154;8.198;2022-12-31T11:41:19;4.32;;;1.55;;
20727;SDS011;10525;50.154;8.198;2022-12-31T11:43:59;2.50;;;1.95;;
20727;SDS011;10525;50.154;8.198;2022-12-31T11:46:46;2.22;;;1.70;;
20727;SDS011;10525;50.154;8.198;2022-12-31T11:49:28;1.58;;;1.58;;
20727;SDS011;10525;50.154;8.198;2022-12-31T11:52:20;1.77;;;1.67;;
20727;SDS011;10525;50.154;8.198;2022-12-31T11:57:58;1.65;;;1.30;;
20727;SDS011;10525;50.154;8.198;2022-12-31T12:00:29;2.47;;;1.80;;
20727;SDS011;10525;50.154;8.198;2022-12-31T12:02:57;1.60;;;1.60;;
20727;SDS011;10525;50.154;8.198;2022-12-31T12:05:26;3.28;;;1.70;;
20727;SDS011;10525;50.154;8.198;2022-12-31T12:07:53;2.13;;;1.77;;
20727;SDS011;10525;50.154;8.198;2022-12-31T12:10:22;4.93;;;1.58;;
20727;SDS011;10525;50.154;8.198;2022-12-31T12:12:50;2.58;;;1.50;;
20727;SDS011;10525;50.154;8.198;2022-12-31T12:15:21;1.60;;;1.50;;
20727;SDS011;10525;50.154;8.198;2022-12-31T12:17:52;1.60;;;1.50;;
20727;SDS011;10525;50.154;8.198;2022-12-31T12:20:23;1.60;;;1.50;;
20727;SDS011;10525;50.154;8.198;2022-12-31T12:22:54;1.50;;;1.50;;
20727;SDS011;10525;50.154;8.198;2022-12-31T12:25:23;1.90;;;1.80;;
20727;SDS011;10525;50.154;8.198;2022-12-31T12:27:51;2.92;;;1.52;;
20727;SDS011;10525;50.154;8.198;2022-12-31T12:30:19;1.48;;;1.48;;
20727;SDS011;10525;50.154;8.198;2022-12-31T12:32:52;1.83;;;1.40;;
20727;SDS011;10525;50.154;8.198;2022-12-31T12:35:23;1.45;;;1.45;;
20727;SDS011;10525;50.154;8.198;2022-12-31T12:37:59;4.40;;;1.58;;
20727;SDS011;10525;50.154;8.198;2022-12-31T12:40:27;2.72;;;1.90;;
20727;SDS011;10525;50.154;8.198;2022-12-31T12:42:55;1.98;;;1.75;;
20727;SDS011;10525;50.154;8.198;2022-12-31T12:45:22;2.10;;;2.00;;
20727;SDS011;10525;50.154;8.198;2022-12-31T12:47:54;2.88;;;2.00;;
20727;SDS011;10525;50.154;8.198;2022-12-31T12:50:23;2.10;;;1.83;;
20727;SDS011;10525;50.154;8.198;2022-12-31T12:53:01;3.97;;;2.40;;
20727;SDS011;10525;50.154;8.198;2022-12-31T12:55:40;4.63;;;2.03;;
20727;SDS011;10525;50.154;8.198;2022-12-31T12:58:20;2.17;;;2.00;;
20727;SDS011;10525;50.154;8.198;2022-12-31T13:00:59;7.50;;;2.33;;
20727;SDS011;10525;50.154;8.198;2022-12-31T13:03:54;2.05;;;1.95;;
20727;SDS011;10525;50.154;8.198;2022-12-31T13:06:39;2.45;;;2.20;;
20727;SDS011;10525;50.154;8.198;2022-12-31T13:09:18;2.00;;;1.90;;
20727;SDS011;10525;50.154;8.198;2022-12-31T13:11:57;2.75;;;2.33;;
20727;SDS011;10525;50.154;8.198;2022-12-31T13:14:30;1.88;;;1.73;;
20727;SDS011;10525;50.154;8.198;2022-12-31T13:17:02;2.10;;;1.88;;
20727;SDS011;10525;50.154;8.198;2022-12-31T13:19:39;1.75;;;1.70;;
20727;SDS011;10525;50.154;8.198;2022-12-31T13:22:13;4.45;;;1.92;;
20727;SDS011;10525;50.154;8.198;2022-12-31T13:24:50;1.90;;;1.80;;
20727;SDS011;10525;50.154;8.198;2022-12-31T13:27:23;2.70;;;2.50;;
20727;SDS011;10525;50.154;8.198;2022-12-31T13:29:54;1.80;;;1.70;;
20727;SDS011;10525;50.154;8.198;2022-12-31T13:32:26;2.55;;;1.80;;
20727;SDS011;10525;50.154;8.198;2022-12-31T13:35:11;1.63;;;1.52;;
20727;SDS011;10525;50.154;8.198;2022-12-31T13:37:44;2.10;;;2.00;;
20727;SDS011;10525;50.154;8.198;2022-12-31T13:40:16;1.88;;;1.88;;
20727;SDS011;10525;50.154;8.198;2022-12-31T13:42:50;1.83;;;1.70;;
20727;SDS011;10525;50.154;8.198;2022-12-31T13:45:21;1.90;;;1.85;;
20727;SDS011;10525;50.154;8.198;2022-12-31T13:47:53;1.55;;;1.55;;
20727;SDS011;10525;50.154;8.198;2022-12-31T13:50:26;1.60;;;1.60;;
20727;SDS011;10525;50.154;8.198;2022-12-31T13:52:57;4.32;;;1.58;;
20727;SDS011;10525;50.154;8.198;2022-12-31T13:55:31;5.07;;;1.67;;
20727;SDS011;10525;50.154;8.198;2022-12-31T13:58:02;3.13;;;1.95;;
20727;SDS011;10525;50.154;8.198;2022-12-31T14:00:35;3.03;;;2.47;;
20727;SDS011;10525;50.154;8.198;2022-12-31T14:03:07;4.28;;;1.75;;
20727;SDS011;10525;50.154;8.198;2022-12-31T14:05:40;2.53;;;1.92;;
20727;SDS011;10525;50.154;8.198;2022-12-31T14:08:12;1.88;;;1.80;;
20727;SDS011;10525;50.154;8.198;2022-12-31T14:10:40;4.28;;;1.73;;
20727;SDS011;10525;50.154;8.198;2022-12-31T14:13:27;1.58;;;1.58;;
20727;SDS011;10525;50.154;8.198;2022-12-31T14:16:04;1.60;;;1.60;;
20727;SDS011;10525;50.154;8.198;2022-12-31T14:18:42;2.92;;;1.85;;
20727;SDS011;10525;50.154;8.198;2022-12-31T14:21:15;1.75;;;1.65;;
20727;SDS011;10525;50.154;8.198;2022-12-31T14:23:49;1.73;;;1.70;;
20727;SDS011;10525;50.154;8.198;2022-12-31T14:26:22;1.77;;;1.67;;
20727;SDS011;10525;50.154;8.198;2022-12-31T14:28:58;1.70;;;1.67;;
20727;SDS011;10525;50.154;8.198;2022-12-31T14:31:36;4.78;;;1.55;;
20727;SDS011;10525;50.154;8.198;2022-12-31T14:34:20;1.70;;;1.70;;
20727;SDS011;10525;50.154;8.198;2022-12-31T14:36:57;1.88;;;1.75;;
20727;SDS011;10525;50.154;8.198;2022-12-31T14:39:29;2.85;;;1.50;;
20727;SDS011;10525;50.154;8.198;2022-12-31T14:42:16;3.70;;;1.50;;
20727;SDS011;10525;50.154;8.198;2022-12-31T14:44:54;1.70;;;1.70;;
20727;SDS011;10525;50.154;8.198;2022-12-31T14:47:29;1.67;;;1.60;;
20727;SDS011;10525;50.154;8.198;2022-12-31T14:50:08;2.03;;;1.60;;
20727;SDS011;10525;50.154;8.198;2022-12-31T14:52:48;2.28;;;2.00;;
20727;SDS011;10525;50.154;8.198;2022-12-31T14:55:20;1.60;;;1.60;;
20727;SDS011;10525;50.154;8.198;2022-12-31T14:57:52;4.53;;;1.50;;
20727;SDS011;10525;50.154;8.198;2022-12-31T15:00:21;2.45;;;1.63;;
20727;SDS011;10525;50.154;8.198;2022-12-31T15:02:52;1.85;;;1.75;;
20727;SDS011;10525;50.154;8.198;2022-12-31T15:05:21;2.53;;;1.67;;
20727;SDS011;10525;50.154;8.198;2022-12-31T15:07:55;1.65;;;1.55;;
20727;SDS011;10525;50.154;8.198;2022-12-31T15:10:52;1.85;;;1.58;;
20727;SDS011;10525;50.154;8.198;2022-12-31T15:13:35;3.40;;;1.85;;
20727;SDS011;10525;50.154;8.198;2022-12-31T15:16:15;1.67;;;1.58;;
20727;SDS011;10525;50.154;8.198;2022-12-31T15:19:00;4.40;;;1.42;;
20727;SDS011;10525;50.154;8.198;2022-12-31T15:21:47;1.90;;;1.80;;
20727;SDS011;10525;50.154;8.198;2022-12-31T15:24:24;1.50;;;1.50;;
20727;SDS011;10525;50.154;8.198;2022-12-31T15:26:55;1.25;;;1.25;;
20727;SDS011;10525;50.154;8.198;2022-12-31T15:29:25;4.45;;;1.60;;
20727;SDS011;10525;50.154;8.198;2022-12-31T15:31:54;1.50;;;1.40;;
20727;SDS011;10525;50.154;8.198;2022-12-31T15:34:24;2.78;;;1.40;;
20727;SDS011;10525;50.154;8.198;2022-12-31T15:36:54;1.42;;;1.42;;
20727;SDS011;10525;50.154;8.198;2022-12-31T15:39:25;5.68;;;1.70;;
20727;SDS011;10525;50.154;8.198;2022-12-31T15:42:02;1.30;;;1.30;;
20727;SDS011;10525;50.154;8.198;2022-12-31T15:44:30;3.60;;;1.30;;
20727;SDS011;10525;50.154;8.198;2022-12-31T15:47:08;6.15;;;1.60;;